Time;durP1;ratioP1;P1;durP2;ratioP2;P2;SDS_P1;SDS_P2;PMS_P1;PMS_P2;Temp;Humidity;BMP_temperature;BMP_pressure;BME280_temperature;BME280_humidity;BME280_pressure;Samples;Min_cycle;Max_cycle;Signal;HPM_P1;HPM_P2
2022/10/21 00:01:07;;;;;;;0.00;0.00;;;12.60;99.90;;;;;;5131242;27;20046;-79
2022/10/21 00:03:34;;;;;;;0.20;0.20;;;12.60;99.90;;;;;;5131564;27;20043;-78
2022/10/21 00:05:59;;;;;;;0.10;0.10;;;12.60;99.90;;;;;;5133408;27;20046;-78
2022/10/21 00:08:25;;;;;;;0.08;0.08;;;12.60;99.90;;;;;;5152705;27;20054;-78
2022/10/21 00:10:56;;;;;;;0.22;0.22;;;12.60;99.90;;;;;;5146360;27;20589;-78
2022/10/21 00:13:23;;;;;;;0.10;0.10;;;12.60;99.90;;;;;;5126760;27;20062;-78
2022/10/21 00:16:05;;;;;;;0.10;0.10;;;12.60;99.90;;;;;;5131281;27;20039;-78
2022/10/21 00:18:32;;;;;;;12.20;1.45;;;12.60;99.90;;;;;;5131568;27;20043;-78
2022/10/21 00:20:58;;;;;;;0.10;0.10;;;12.50;99.90;;;;;;5113842;27;20073;-78
2022/10/21 00:23:24;;;;;;;0.30;0.30;;;12.50;99.90;;;;;;5131466;27;20104;-78
2022/10/21 00:25:58;;;;;;;0.10;0.10;;;12.50;99.90;;;;;;5132984;27;20043;-78
2022/10/21 00:28:24;;;;;;;0.10;0.10;;;12.50;99.90;;;;;;5132032;27;20047;-78
2022/10/21 00:30:49;;;;;;;0.10;0.10;;;12.50;99.90;;;;;;5136850;27;20043;-78
2022/10/21 00:33:15;;;;;;;0.32;0.32;;;12.50;99.90;;;;;;5130030;27;20050;-78
2022/10/21 00:35:40;;;;;;;0.30;0.30;;;12.40;99.90;;;;;;5134750;27;20043;-78
2022/10/21 00:38:06;;;;;;;0.30;0.30;;;12.50;99.90;;;;;;5128983;27;20037;-78
2022/10/21 00:40:32;;;;;;;3.83;0.77;;;12.40;99.90;;;;;;5141834;27;20537;-78
2022/10/21 00:42:58;;;;;;;0.43;0.43;;;12.40;99.90;;;;;;5136346;27;20371;-79
2022/10/21 00:45:26;;;;;;;0.43;0.43;;;12.50;99.90;;;;;;5130587;27;20051;-78
2022/10/21 00:48:15;;;;;;;0.50;0.50;;;12.40;99.90;;;;;;5145898;27;20054;-78
2022/10/21 00:50:47;;;;;;;0.10;0.10;;;12.40;99.90;;;;;;5132623;27;20054;-78
2022/10/21 00:53:14;;;;;;;1.20;1.08;;;12.40;99.90;;;;;;5151026;27;20546;-78
2022/10/21 00:55:45;;;;;;;0.65;0.32;;;12.40;99.90;;;;;;5150574;27;20107;-78
2022/10/21 00:58:11;;;;;;;0.52;0.52;;;12.40;99.90;;;;;;5130311;27;20039;-78
2022/10/21 01:00:36;;;;;;;0.35;0.35;;;12.40;99.90;;;;;;5133772;27;20042;-78
2022/10/21 01:03:02;;;;;;;1.45;0.80;;;12.40;99.90;;;;;;5135561;27;20082;-78
2022/10/21 01:05:29;;;;;;;0.35;0.32;;;12.40;99.90;;;;;;5129647;27;20043;-78
2022/10/21 01:07:55;;;;;;;0.10;0.10;;;12.40;99.90;;;;;;5147768;27;20130;-78
2022/10/21 01:10:20;;;;;;;0.38;0.38;;;12.30;99.90;;;;;;5139419;27;20121;-78
2022/10/21 01:12:56;;;;;;;0.20;0.20;;;12.30;99.90;;;;;;5131359;27;20111;-78
2022/10/21 01:15:28;;;;;;;0.10;0.10;;;12.30;99.90;;;;;;5129909;27;20443;-78
2022/10/21 01:18:16;;;;;;;0.30;0.30;;;12.30;99.90;;;;;;5148919;27;20117;-78
2022/10/21 01:20:57;;;;;;;0.05;0.05;;;12.30;99.90;;;;;;5151577;27;20043;-78
2022/10/21 01:23:31;;;;;;;0.17;0.17;;;12.30;99.90;;;;;;5131289;27;20051;-78
2022/10/21 01:26:24;;;;;;;0.22;0.22;;;12.30;99.90;;;;;;5136925;27;20042;-77
2022/10/21 01:29:18;;;;;;;0.63;0.52;;;12.30;99.90;;;;;;5132863;27;20111;-78
2022/10/21 01:31:53;;;;;;;;;;;12.30;99.90;;;;;;5131616;27;20039;-78
2022/10/21 01:34:39;;;;;;;0.47;0.47;;;12.30;99.90;;;;;;5150356;27;19919;-78
2022/10/21 01:37:16;;;;;;;0.10;0.10;;;12.40;99.90;;;;;;5139426;27;20085;-78
2022/10/21 01:39:45;;;;;;;1.27;0.63;;;12.40;99.90;;;;;;5113929;27;20058;-78
2022/10/21 01:42:41;;;;;;;0.85;0.85;;;12.40;99.90;;;;;;5141222;27;20075;-78
2022/10/21 01:45:13;;;;;;;0.30;0.30;;;12.40;99.90;;;;;;5131933;27;20486;-78
2022/10/21 01:48:08;;;;;;;0.10;0.10;;;12.40;99.90;;;;;;5152780;27;20090;-78
2022/10/21 01:50:47;;;;;;;0.35;0.35;;;12.40;99.90;;;;;;5149530;27;20066;-78
2022/10/21 01:53:15;;;;;;;0.10;0.10;;;12.40;99.90;;;;;;5155312;27;20482;-78
2022/10/21 01:55:44;;;;;;;0.10;0.10;;;12.40;99.90;;;;;;5154246;27;20046;-78
2022/10/21 01:58:14;;;;;;;1.50;1.35;;;12.40;99.90;;;;;;5154158;27;20062;-78
2022/10/21 02:00:42;;;;;;;0.63;0.63;;;12.40;99.90;;;;;;5127640;27;20035;-78
2022/10/21 02:03:10;;;;;;;0.10;0.10;;;12.40;99.90;;;;;;5130371;27;20429;-78
2022/10/21 02:05:36;;;;;;;0.20;0.20;;;12.40;99.90;;;;;;5135965;27;20096;-78
2022/10/21 02:08:02;;;;;;;0.65;0.65;;;12.40;99.90;;;;;;5128382;27;20047;-78
2022/10/21 02:10:36;;;;;;;0.35;0.35;;;12.50;99.90;;;;;;5132811;27;20573;-78
2022/10/21 02:13:05;;;;;;;1.90;1.75;;;12.50;99.90;;;;;;5134529;27;20054;-78
2022/10/21 02:15:33;;;;;;;0.10;0.10;;;12.50;99.90;;;;;;5133732;27;20167;-78
2022/10/21 02:18:06;;;;;;;0.10;0.10;;;12.50;99.90;;;;;;5136601;27;20047;-78
2022/10/21 02:20:34;;;;;;;;;;;12.50;99.90;;;;;;5137482;27;20471;-78
2022/10/21 02:23:01;;;;;;;0.32;0.32;;;12.60;99.90;;;;;;5138845;27;19927;-78
2022/10/21 02:25:31;;;;;;;0.40;0.40;;;12.60;99.90;;;;;;5147502;27;20070;-78
2022/10/21 02:27:57;;;;;;;0.98;0.75;;;12.60;99.90;;;;;;5131968;27;20043;-78
2022/10/21 02:30:23;;;;;;;0.10;0.10;;;12.70;99.90;;;;;;5133174;27;20050;-78
2022/10/21 02:33:08;;;;;;;0.22;0.22;;;12.70;99.90;;;;;;5137918;27;20031;-77
2022/10/21 02:36:07;;;;;;;0.00;0.00;;;12.70;99.90;;;;;;5135978;27;20058;-78
2022/10/21 02:38:48;;;;;;;0.30;0.30;;;12.70;99.90;;;;;;5133163;27;20047;-78
2022/10/21 02:41:19;;;;;;;0.32;0.32;;;12.80;99.90;;;;;;5143255;27;20091;-78
2022/10/21 02:43:51;;;;;;;0.10;0.10;;;12.80;99.90;;;;;;5126337;27;20490;-79
2022/10/21 02:46:17;;;;;;;0.10;0.10;;;12.90;99.90;;;;;;5118908;27;20053;-79
2022/10/21 02:48:45;;;;;;;0.10;0.10;;;12.80;99.90;;;;;;5125166;27;20387;-79
2022/10/21 02:51:11;;;;;;;0.50;0.50;;;12.90;99.90;;;;;;5133976;27;20074;-79
2022/10/21 02:53:37;;;;;;;0.10;0.10;;;12.90;99.90;;;;;;5126981;27;20058;-78
2022/10/21 02:56:03;;;;;;;0.10;0.10;;;12.90;99.90;;;;;;5132300;27;20039;-78
2022/10/21 02:58:29;;;;;;;0.13;0.13;;;12.90;99.90;;;;;;5154362;27;20054;-78
2022/10/21 03:00:54;;;;;;;0.30;0.30;;;12.90;99.90;;;;;;5135339;27;20402;-78
2022/10/21 03:03:20;;;;;;;0.00;0.00;;;12.90;99.90;;;;;;5142856;27;20047;-82
2022/10/21 03:05:46;;;;;;;0.00;0.00;;;12.90;99.90;;;;;;5146425;27;20125;-78
2022/10/21 03:08:11;;;;;;;0.52;0.52;;;12.90;99.90;;;;;;5149671;27;20042;-78
2022/10/21 03:10:37;;;;;;;0.40;0.40;;;13.00;99.90;;;;;;5154550;27;20035;-77
2022/10/21 03:13:03;;;;;;;0.10;0.10;;;13.00;99.90;;;;;;5153317;27;20514;-77
2022/10/21 03:15:29;;;;;;;0.03;0.03;;;13.00;99.90;;;;;;5154389;27;20083;-77
2022/10/21 03:17:54;;;;;;;0.50;0.50;;;13.00;99.90;;;;;;5141916;27;20035;-78
2022/10/21 03:20:20;;;;;;;0.28;0.28;;;13.00;99.90;;;;;;5147831;27;20046;-77
2022/10/21 03:22:46;;;;;;;0.30;0.30;;;13.00;99.90;;;;;;5145330;27;20447;-77
2022/10/21 03:25:12;;;;;;;0.30;0.30;;;13.10;99.90;;;;;;5123108;27;20437;-77
2022/10/21 03:27:37;;;;;;;1.08;0.98;;;13.10;99.90;;;;;;5135219;27;20042;-77
2022/10/21 03:30:05;;;;;;;0.30;0.30;;;13.10;99.90;;;;;;5148727;27;20486;-77
2022/10/21 03:32:30;;;;;;;0.35;0.35;;;13.20;99.90;;;;;;5133391;27;20050;-77
2022/10/21 03:34:56;;;;;;;0.20;0.20;;;13.20;99.90;;;;;;5133019;27;20039;-77
2022/10/21 03:37:22;;;;;;;0.20;0.20;;;13.20;99.90;;;;;;5144137;27;20049;-76
2022/10/21 03:39:47;;;;;;;0.30;0.30;;;13.20;99.90;;;;;;5148096;27;20035;-76
2022/10/21 03:42:13;;;;;;;0.40;0.40;;;13.20;99.90;;;;;;5150560;27;20049;-76
2022/10/21 03:44:39;;;;;;;0.25;0.15;;;13.30;99.90;;;;;;5139258;27;20039;-77
2022/10/21 03:47:05;;;;;;;0.55;0.55;;;13.30;99.90;;;;;;5139977;27;20087;-78
2022/10/21 03:49:31;;;;;;;0.10;0.10;;;13.30;99.90;;;;;;5152500;27;20070;-80
2022/10/21 03:51:56;;;;;;;0.35;0.35;;;13.30;99.90;;;;;;5153597;27;20046;-80
2022/10/21 03:54:22;;;;;;;1.40;0.47;;;13.30;99.90;;;;;;5152592;27;20037;-79
2022/10/21 03:56:47;;;;;;;1.48;0.65;;;13.30;99.90;;;;;;5138022;27;20054;-79
2022/10/21 03:59:13;;;;;;;0.22;0.22;;;13.40;99.90;;;;;;5132291;27;20516;-79
2022/10/21 04:01:38;;;;;;;1.45;0.45;;;13.40;99.90;;;;;;5114232;27;20047;-79
2022/10/21 04:04:04;;;;;;;0.10;0.10;;;13.40;99.90;;;;;;5135069;27;20050;-79
2022/10/21 04:06:30;;;;;;;0.10;0.10;;;13.40;99.90;;;;;;5135686;27;20035;-80
2022/10/21 04:08:55;;;;;;;0.32;0.32;;;13.40;99.90;;;;;;5150019;27;20098;-79
2022/10/21 04:11:21;;;;;;;0.10;0.10;;;13.40;99.90;;;;;;5150148;27;20049;-80
2022/10/21 04:13:46;;;;;;;0.10;0.10;;;13.40;99.90;;;;;;5134423;27;20050;-79
2022/10/21 04:16:15;;;;;;;0.20;0.20;;;13.40;99.90;;;;;;5124633;27;20406;-79
2022/10/21 04:18:41;;;;;;;0.65;0.65;;;13.40;99.90;;;;;;5132617;27;20041;-79
2022/10/21 04:21:07;;;;;;;0.75;0.65;;;13.50;99.90;;;;;;5132000;27;20046;-79
2022/10/21 04:23:33;;;;;;;0.25;0.25;;;13.50;99.90;;;;;;5129726;27;20382;-79
2022/10/21 04:25:59;;;;;;;2.38;0.55;;;13.50;99.90;;;;;;5136498;27;20027;-79
2022/10/21 04:28:24;;;;;;;0.00;0.00;;;13.50;99.90;;;;;;5148156;27;20079;-79
2022/10/21 04:30:50;;;;;;;0.65;0.65;;;13.50;99.90;;;;;;5131577;27;20083;-79
2022/10/21 04:33:16;;;;;;;0.10;0.10;;;13.60;99.90;;;;;;5152236;27;20121;-79
2022/10/21 04:35:41;;;;;;;0.20;0.20;;;13.60;99.90;;;;;;5150142;27;20050;-80
2022/10/21 04:38:07;;;;;;;0.05;0.05;;;13.60;99.90;;;;;;5141544;27;20083;-80
2022/10/21 04:40:33;;;;;;;0.08;0.08;;;13.50;99.90;;;;;;5144794;27;20114;-80
2022/10/21 04:42:58;;;;;;;0.25;0.25;;;13.60;99.90;;;;;;5152737;27;20039;-79
2022/10/21 04:45:24;;;;;;;0.05;0.05;;;13.60;99.90;;;;;;5147895;27;20568;-79
2022/10/21 04:47:49;;;;;;;0.10;0.10;;;13.60;99.90;;;;;;5130683;27;20855;-80
2022/10/21 04:50:15;;;;;;;0.10;0.10;;;13.60;99.90;;;;;;5151101;27;20048;-79
2022/10/21 04:52:41;;;;;;;0.10;0.10;;;13.60;99.90;;;;;;5131470;27;20036;-80
2022/10/21 04:55:07;;;;;;;0.40;0.40;;;13.60;99.90;;;;;;5134218;27;20513;-79
2022/10/21 04:57:33;;;;;;;0.10;0.10;;;13.60;99.90;;;;;;5132546;27;20122;-79
2022/10/21 04:59:58;;;;;;;0.10;0.10;;;13.60;99.90;;;;;;5135108;27;20209;-80
2022/10/21 05:02:24;;;;;;;0.57;0.38;;;13.60;99.90;;;;;;5130633;27;20059;-79
2022/10/21 05:04:49;;;;;;;0.10;0.10;;;13.60;99.90;;;;;;5128502;27;20148;-80
2022/10/21 05:07:15;;;;;;;0.20;0.20;;;13.60;99.90;;;;;;5126395;27;20072;-79
2022/10/21 05:09:40;;;;;;;0.43;0.32;;;13.60;99.90;;;;;;5135451;27;20410;-79
2022/10/21 05:12:06;;;;;;;0.10;0.10;;;13.60;99.90;;;;;;5126138;27;20134;-79
2022/10/21 05:14:31;;;;;;;0.40;0.40;;;13.50;99.90;;;;;;5130472;27;20035;-79
2022/10/21 05:16:57;;;;;;;0.32;0.32;;;13.60;99.90;;;;;;5140354;27;20091;-79
2022/10/21 05:19:22;;;;;;;0.10;0.10;;;13.60;99.90;;;;;;5133363;27;20422;-79
2022/10/21 05:21:48;;;;;;;0.40;0.40;;;13.50;99.90;;;;;;5149027;27;20130;-79
2022/10/21 05:24:16;;;;;;;0.00;0.00;;;13.50;99.90;;;;;;5133326;27;20386;-79
2022/10/21 05:26:42;;;;;;;0.13;0.13;;;13.50;99.90;;;;;;5150564;27;20050;-79
2022/10/21 05:29:08;;;;;;;0.32;0.32;;;13.50;99.90;;;;;;5139608;27;20043;-79
2022/10/21 05:31:33;;;;;;;0.55;0.55;;;13.50;99.90;;;;;;5125395;28;20499;-79
2022/10/21 05:33:59;;;;;;;0.77;0.77;;;13.50;99.90;;;;;;5133728;27;20457;-79
2022/10/21 05:36:25;;;;;;;0.35;0.35;;;13.50;99.90;;;;;;5150729;27;20142;-79
2022/10/21 05:38:50;;;;;;;0.38;0.38;;;13.50;99.90;;;;;;5146556;27;20042;-80
2022/10/21 05:41:16;;;;;;;0.20;0.20;;;13.40;99.90;;;;;;5149032;27;20149;-79
2022/10/21 05:43:42;;;;;;;0.20;0.20;;;13.40;99.90;;;;;;5151640;27;20035;-80
2022/10/21 05:46:08;;;;;;;0.63;0.63;;;13.40;99.90;;;;;;5148581;27;20039;-79
2022/10/21 05:48:34;;;;;;;0.65;0.65;;;13.30;99.90;;;;;;5134216;27;20523;-79
2022/10/21 05:51:00;;;;;;;0.45;0.45;;;13.40;99.90;;;;;;5132345;27;20043;-80
2022/10/21 05:53:26;;;;;;;0.28;0.28;;;13.40;99.90;;;;;;5133165;27;20134;-78
2022/10/21 05:56:00;;;;;;;0.10;0.10;;;13.30;99.90;;;;;;5127822;27;20095;-78
2022/10/21 05:58:26;;;;;;;0.15;0.15;;;13.30;99.90;;;;;;5142520;27;20137;-78
2022/10/21 06:00:53;;;;;;;0.28;0.28;;;13.30;99.90;;;;;;5148683;27;20043;-78
2022/10/21 06:03:21;;;;;;;0.10;0.10;;;13.20;99.90;;;;;;5128676;27;20050;-78
2022/10/21 06:05:47;;;;;;;0.10;0.10;;;13.20;99.90;;;;;;5131324;27;20043;-77
2022/10/21 06:08:12;;;;;;;0.10;0.10;;;13.20;99.90;;;;;;5146730;27;20035;-77
2022/10/21 06:10:38;;;;;;;0.60;0.60;;;13.20;99.90;;;;;;5126865;27;20134;-76
2022/10/21 06:13:03;;;;;;;0.57;0.57;;;13.10;99.90;;;;;;5130573;27;20042;-77
2022/10/21 06:15:29;;;;;;;0.43;0.43;;;13.10;99.90;;;;;;5132707;27;20477;-77
2022/10/21 06:17:54;;;;;;;0.30;0.30;;;13.10;99.90;;;;;;5144965;27;20048;-77
2022/10/21 06:20:20;;;;;;;2.72;1.25;;;13.10;99.90;;;;;;5124699;27;20051;-77
2022/10/21 06:22:45;;;;;;;2.28;2.10;;;13.20;99.90;;;;;;5133213;27;20133;-77
2022/10/21 06:25:11;;;;;;;0.20;0.20;;;13.20;99.90;;;;;;5148981;27;20478;-77
2022/10/21 06:27:36;;;;;;;0.35;0.35;;;13.20;99.90;;;;;;5141123;27;20547;-77
2022/10/21 06:30:03;;;;;;;0.13;0.13;;;13.20;99.90;;;;;;5131399;27;20047;-76
2022/10/21 06:32:28;;;;;;;0.20;0.20;;;13.20;99.90;;;;;;5134661;27;20047;-77
2022/10/21 06:34:54;;;;;;;1.73;0.85;;;13.20;99.90;;;;;;5135617;27;20035;-77
2022/10/21 06:37:20;;;;;;;0.85;0.85;;;13.20;99.90;;;;;;5151873;27;20043;-78
2022/10/21 06:39:45;;;;;;;0.93;0.93;;;13.20;99.90;;;;;;5155545;27;20245;-78
2022/10/21 06:42:12;;;;;;;0.15;0.15;;;13.30;99.90;;;;;;5134956;27;20043;-77
2022/10/21 06:44:38;;;;;;;0.32;0.32;;;13.30;99.90;;;;;;5153703;27;20035;-78
2022/10/21 06:47:03;;;;;;;0.20;0.20;;;13.30;99.90;;;;;;5140585;27;20088;-76
2022/10/21 06:49:29;;;;;;;6.50;1.17;;;13.30;99.90;;;;;;5133922;27;20043;-77
2022/10/21 06:51:54;;;;;;;0.52;0.52;;;13.30;99.90;;;;;;5115442;27;20414;-78
2022/10/21 06:54:20;;;;;;;0.10;0.10;;;13.30;99.90;;;;;;5123954;27;20039;-77
2022/10/21 06:56:45;;;;;;;4.07;0.10;;;13.30;99.90;;;;;;5149368;27;20043;-77
2022/10/21 06:59:11;;;;;;;0.47;0.47;;;13.30;99.90;;;;;;5133943;27;20392;-77
2022/10/21 07:01:37;;;;;;;0.25;0.25;;;13.30;99.90;;;;;;5120919;27;20073;-77
2022/10/21 07:04:04;;;;;;;0.20;0.20;;;13.30;99.90;;;;;;5153014;27;20050;-77
2022/10/21 07:06:30;;;;;;;0.32;0.32;;;13.30;99.90;;;;;;5132498;27;20056;-77
2022/10/21 07:08:57;;;;;;;1.20;1.10;;;13.40;99.90;;;;;;5130441;27;20043;-77
2022/10/21 07:11:22;;;;;;;0.20;0.20;;;13.40;99.90;;;;;;5131688;27;20100;-77
2022/10/21 07:13:48;;;;;;;0.35;0.35;;;13.40;99.90;;;;;;5130901;27;20075;-77
2022/10/21 07:16:18;;;;;;;0.35;0.35;;;13.40;99.90;;;;;;5131564;27;20569;-77
2022/10/21 07:18:44;;;;;;;0.70;0.65;;;13.40;99.90;;;;;;5113738;27;20050;-77
2022/10/21 07:21:18;;;;;;;0.15;0.15;;;13.50;99.90;;;;;;5111438;27;20121;-77
2022/10/21 07:23:45;;;;;;;0.00;0.00;;;13.50;99.90;;;;;;5131452;27;20674;-78
2022/10/21 07:26:11;;;;;;;0.10;0.10;;;13.50;99.90;;;;;;5139259;27;20038;-77
2022/10/21 07:28:38;;;;;;;0.10;0.10;;;13.50;99.90;;;;;;5152311;27;20446;-77
2022/10/21 07:31:04;;;;;;;0.32;0.32;;;13.50;99.90;;;;;;5132381;27;20130;-78
2022/10/21 07:33:31;;;;;;;0.20;0.20;;;13.50;99.90;;;;;;5151560;27;20043;-78
2022/10/21 07:36:05;;;;;;;0.03;0.03;;;13.60;99.90;;;;;;5133262;27;20039;-78
2022/10/21 07:38:31;;;;;;;0.30;0.30;;;13.60;99.90;;;;;;5152116;27;20046;-78
2022/10/21 07:40:57;;;;;;;0.60;0.52;;;13.60;99.90;;;;;;5121048;27;20047;-78
2022/10/21 07:43:23;;;;;;;0.25;0.22;;;13.60;99.90;;;;;;5122580;27;20058;-78
2022/10/21 07:45:49;;;;;;;0.10;0.10;;;13.60;99.90;;;;;;5131346;27;20039;-78
2022/10/21 07:48:14;;;;;;;0.40;0.40;;;13.70;99.90;;;;;;5129607;27;20043;-78
2022/10/21 07:50:40;;;;;;;0.77;0.77;;;13.60;99.90;;;;;;5133339;27;20452;-78
2022/10/21 07:53:05;;;;;;;0.20;0.20;;;13.70;99.90;;;;;;5133869;27;20031;-78
2022/10/21 07:55:31;;;;;;;0.50;0.50;;;13.70;99.90;;;;;;5149231;27;20612;-78
2022/10/21 07:57:57;;;;;;;0.95;0.90;;;13.70;99.90;;;;;;5124134;27;20043;-79
2022/10/21 08:00:23;;;;;;;0.73;0.65;;;13.70;99.90;;;;;;5144825;27;20061;-79
2022/10/21 08:02:53;;;;;;;0.15;0.15;;;13.80;99.90;;;;;;5152176;27;20055;-78
2022/10/21 08:05:19;;;;;;;0.15;0.15;;;13.80;99.90;;;;;;5152466;27;20053;-78
2022/10/21 08:07:45;;;;;;;0.17;0.17;;;13.80;99.90;;;;;;5145942;27;20043;-78
2022/10/21 08:10:10;;;;;;;0.50;0.50;;;13.80;99.90;;;;;;5133983;27;20038;-78
2022/10/21 08:12:36;;;;;;;0.30;0.30;;;13.90;99.90;;;;;;5134219;27;20049;-78
2022/10/21 08:15:01;;;;;;;1.85;0.73;;;13.90;99.90;;;;;;5152236;27;20035;-78
2022/10/21 08:17:27;;;;;;;0.10;0.10;;;13.90;99.90;;;;;;5133165;27;20047;-78
2022/10/21 08:19:52;;;;;;;0.08;0.08;;;13.90;99.90;;;;;;5134930;27;20038;-78
2022/10/21 08:22:18;;;;;;;0.10;0.10;;;14.00;99.90;;;;;;5152220;27;20050;-78
2022/10/21 08:24:44;;;;;;;0.30;0.30;;;14.00;99.90;;;;;;5150574;27;20039;-79
2022/10/21 08:27:09;;;;;;;0.85;0.50;;;14.00;99.90;;;;;;5128041;27;20035;-78
2022/10/21 08:29:35;;;;;;;0.30;0.30;;;14.10;99.90;;;;;;5132359;27;20133;-78
2022/10/21 08:32:00;;;;;;;0.47;0.30;;;14.10;99.90;;;;;;5133424;27;20477;-79
2022/10/21 08:34:26;;;;;;;0.20;0.20;;;14.10;99.90;;;;;;5132990;27;20814;-79
2022/10/21 08:36:52;;;;;;;0.20;0.20;;;14.10;99.90;;;;;;5132422;27;20050;-79
2022/10/21 08:39:17;;;;;;;0.10;0.10;;;14.10;99.90;;;;;;5134854;27;20172;-79
2022/10/21 08:41:52;;;;;;;0.10;0.10;;;14.10;99.90;;;;;;5149378;27;20140;-79
2022/10/21 08:44:54;;;;;;;0.30;0.30;;;14.20;99.90;;;;;;5149861;27;20344;-78
2022/10/21 08:47:23;;;;;;;0.43;0.43;;;14.20;99.90;;;;;;5113347;27;20069;-80
2022/10/21 08:50:04;;;;;;;0.20;0.20;;;14.20;99.90;;;;;;5132689;27;20055;-80
2022/10/21 08:52:36;;;;;;;0.30;0.30;;;14.20;99.90;;;;;;5132716;27;20042;-78
2022/10/21 08:55:12;;;;;;;0.28;0.28;;;14.30;99.90;;;;;;5130903;27;20082;-79
2022/10/21 08:57:38;;;;;;;0.75;0.75;;;14.30;99.90;;;;;;5130720;27;20068;-79
2022/10/21 09:00:14;;;;;;;0.65;0.40;;;14.40;99.90;;;;;;5132959;27;20046;-79
2022/10/21 09:02:40;;;;;;;0.17;0.17;;;14.40;99.90;;;;;;5140439;27;20086;-79
2022/10/21 09:05:08;;;;;;;0.73;0.73;;;14.50;99.90;;;;;;5141537;27;20493;-79
2022/10/21 09:07:50;;;;;;;0.20;0.20;;;14.50;99.90;;;;;;5139506;27;20043;-78
2022/10/21 09:10:31;;;;;;;0.10;0.10;;;14.50;99.90;;;;;;5148926;27;20046;-77
2022/10/21 09:13:34;;;;;;;0.30;0.30;;;14.60;99.90;;;;;;5130835;27;20043;-77
2022/10/21 09:16:10;;;;;;;0.17;0.17;;;14.60;99.90;;;;;;5133131;27;20042;-77
2022/10/21 09:18:54;;;;;;;0.20;0.20;;;14.60;99.90;;;;;;5150741;27;20046;-79
2022/10/21 09:21:39;;;;;;;0.00;0.00;;;14.70;99.90;;;;;;5142374;27;20118;-78
2022/10/21 09:24:06;;;;;;;0.10;0.10;;;14.70;99.90;;;;;;5140488;27;20104;-79
2022/10/21 09:26:45;;;;;;;0.90;0.30;;;14.70;99.90;;;;;;5115936;27;20066;-76
2022/10/21 09:29:19;;;;;;;0.20;0.20;;;14.70;99.90;;;;;;5142225;27;20044;-79
2022/10/21 09:31:44;;;;;;;0.10;0.10;;;14.70;99.90;;;;;;5139465;27;20498;-78
2022/10/21 09:34:36;;;;;;;0.57;0.57;;;14.70;99.90;;;;;;5143051;27;20042;-78
2022/10/21 09:37:10;;;;;;;0.10;0.10;;;14.70;99.90;;;;;;5143101;27;20069;-79
2022/10/21 09:39:44;;;;;;;0.47;0.38;;;14.70;99.90;;;;;;5124762;27;20038;-78
2022/10/21 09:42:11;;;;;;;;;;;14.70;99.90;;;;;;5135390;27;20074;-78
2022/10/21 09:44:38;;;;;;;0.20;0.20;;;14.70;99.90;;;;;;5131783;27;19919;-78
2022/10/21 09:47:16;;;;;;;0.20;0.20;;;14.70;99.90;;;;;;5143387;27;20062;-78
2022/10/21 09:49:47;;;;;;;0.20;0.20;;;14.70;99.90;;;;;;5147683;27;20074;-78
2022/10/21 09:52:16;;;;;;;0.47;0.47;;;14.70;99.90;;;;;;5129055;27;20051;-78
2022/10/21 09:54:43;;;;;;;0.00;0.00;;;14.70;99.90;;;;;;5131408;27;20114;-76
2022/10/21 09:57:40;;;;;;;0.10;0.10;;;14.70;99.90;;;;;;5118029;27;20051;-75
2022/10/21 10:00:06;;;;;;;0.10;0.10;;;14.70;99.90;;;;;;5129716;27;20076;-75
2022/10/21 10:02:39;;;;;;;32.70;1.50;;;14.80;99.90;;;;;;5136001;27;20650;-76
2022/10/21 10:05:37;;;;;;;0.28;0.20;;;14.80;99.90;;;;;;5138538;27;20115;-77
2022/10/21 10:08:42;;;;;;;0.55;0.55;;;14.80;99.90;;;;;;5142141;27;20194;-73
2022/10/21 10:11:07;;;;;;;0.13;0.13;;;14.80;99.90;;;;;;5051467;28;20057;-77
2022/10/21 10:13:34;;;;;;;0.98;0.90;;;14.90;99.90;;;;;;5132572;27;20061;-77
2022/10/21 10:16:28;;;;;;;0.20;0.20;;;14.90;99.90;;;;;;5137055;27;20398;-78
2022/10/21 10:19:33;;;;;;;;;;;14.90;99.90;;;;;;5138767;27;20138;-78
2022/10/21 10:22:12;;;;;;;1.35;0.15;;;14.90;99.90;;;;;;5052342;28;19924;-77
2022/10/21 10:24:39;;;;;;;0.80;0.80;;;14.90;99.90;;;;;;5041675;28;20484;-78
2022/10/21 10:27:13;;;;;;;0.10;0.10;;;14.90;99.90;;;;;;5113954;27;20069;-78
2022/10/21 10:29:40;;;;;;;0.10;0.10;;;14.90;99.90;;;;;;5143345;27;20042;-78
2022/10/21 10:32:14;;;;;;;2.72;0.77;;;14.90;99.90;;;;;;5150785;27;20499;-77
2022/10/21 10:34:51;;;;;;;0.20;0.20;;;15.00;99.90;;;;;;5119528;27;20043;-78
2022/10/21 10:37:26;;;;;;;0.20;0.20;;;14.90;99.90;;;;;;5121829;27;20058;-78
2022/10/21 10:39:55;;;;;;;5.93;1.35;;;15.00;99.90;;;;;;5129694;27;20050;-78
2022/10/21 10:42:26;;;;;;;1.23;1.13;;;15.00;99.90;;;;;;5153263;27;20477;-78
2022/10/21 10:44:54;;;;;;;0.38;0.38;;;15.00;99.90;;;;;;5149266;27;20046;-78
2022/10/21 10:47:28;;;;;;;0.40;0.40;;;15.00;99.90;;;;;;5141256;27;20081;-78
2022/10/21 10:49:53;;;;;;;0.30;0.30;;;15.00;99.90;;;;;;5134519;27;20041;-78
2022/10/21 10:52:23;;;;;;;0.10;0.10;;;15.00;99.90;;;;;;5122955;27;20051;-78
2022/10/21 10:55:11;;;;;;;0.30;0.30;;;15.00;99.90;;;;;;5141825;27;20110;-78
2022/10/21 10:57:42;;;;;;;1.75;1.45;;;15.10;99.90;;;;;;5140338;27;20078;-78
2022/10/21 11:00:18;;;;;;;0.20;0.20;;;15.10;99.90;;;;;;5133966;27;20057;-77
2022/10/21 11:02:56;;;;;;;0.10;0.10;;;15.10;99.90;;;;;;5133018;27;20100;-78
2022/10/21 11:05:27;;;;;;;0.30;0.30;;;15.10;99.90;;;;;;5122016;27;20126;-78
2022/10/21 11:08:04;;;;;;;0.57;0.57;;;15.20;99.90;;;;;;5154429;27;20095;-79
2022/10/21 11:10:43;;;;;;;0.20;0.20;;;15.20;99.90;;;;;;5129750;27;20054;-78
2022/10/21 11:13:13;;;;;;;0.10;0.10;;;15.20;99.90;;;;;;5134814;27;20043;-78
2022/10/21 11:16:23;;;;;;;0.00;0.00;;;15.20;99.90;;;;;;5117319;27;20138;-78
2022/10/21 11:19:02;;;;;;;0.10;0.10;;;15.30;99.90;;;;;;5144145;27;20051;-78
2022/10/21 11:21:36;;;;;;;0.10;0.10;;;15.30;99.90;;;;;;5150698;27;20039;-78
2022/10/21 11:24:15;;;;;;;0.70;0.70;;;15.40;99.90;;;;;;5127788;27;20455;-79
2022/10/21 11:27:03;;;;;;;0.10;0.10;;;15.40;99.90;;;;;;5131717;27;20043;-78
2022/10/21 11:29:38;;;;;;;0.17;0.17;;;15.50;99.90;;;;;;5133932;27;20039;-78
2022/10/21 11:32:23;;;;;;;0.08;0.08;;;15.60;99.90;;;;;;5133610;27;20397;-78
2022/10/21 11:35:15;;;;;;;0.10;0.10;;;15.60;99.90;;;;;;5131796;27;20070;-79
2022/10/21 11:37:43;;;;;;;1.40;0.80;;;15.60;99.90;;;;;;5102399;27;20083;-79
2022/10/21 11:40:38;;;;;;;0.85;0.85;;;15.60;99.90;;;;;;5150280;27;20047;-79
2022/10/21 11:43:26;;;;;;;0.00;0.00;;;15.60;99.90;;;;;;5140210;27;20047;-78
2022/10/21 11:46:06;;;;;;;0.10;0.10;;;15.60;99.90;;;;;;5142330;27;20043;-79
2022/10/21 11:49:03;;;;;;;0.10;0.10;;;15.60;99.90;;;;;;5138474;27;20042;-79
2022/10/21 11:51:56;;;;;;;0.20;0.20;;;15.60;99.90;;;;;;5140902;27;20558;-78
2022/10/21 11:54:37;;;;;;;0.35;0.35;;;15.70;99.90;;;;;;5139134;27;20050;-78
2022/10/21 11:57:29;;;;;;;0.98;0.80;;;15.60;99.90;;;;;;5135515;27;20100;-78
2022/10/21 11:59:54;;;;;;;0.55;0.55;;;15.70;99.90;;;;;;5138385;27;20133;-79
2022/10/21 12:02:24;;;;;;;0.30;0.30;;;15.70;99.90;;;;;;5138479;27;20133;-79
2022/10/21 12:05:14;;;;;;;0.00;0.00;;;15.80;99.90;;;;;;5151167;27;20095;-80
2022/10/21 12:08:06;;;;;;;0.32;0.32;;;15.70;99.90;;;;;;5122488;27;20142;-79
2022/10/21 12:10:45;;;;;;;0.13;0.13;;;15.80;99.90;;;;;;5144076;27;20034;-78
2022/10/21 12:13:31;;;;;;;0.10;0.10;;;15.80;99.90;;;;;;5125344;27;20047;-79
2022/10/21 12:16:13;;;;;;;0.10;0.10;;;15.80;99.90;;;;;;5148562;27;20103;-79
2022/10/21 12:18:49;;;;;;;0.20;0.20;;;15.90;99.90;;;;;;5128338;27;20486;-79
2022/10/21 12:21:18;;;;;;;0.10;0.10;;;15.90;99.90;;;;;;5142499;27;20053;-79
2022/10/21 12:23:51;;;;;;;0.05;0.05;;;15.90;99.90;;;;;;5143289;27;20080;-79
2022/10/21 12:26:33;;;;;;;0.15;0.15;;;16.00;99.90;;;;;;5146993;27;20050;-79
2022/10/21 12:29:12;;;;;;;0.65;0.65;;;16.10;99.90;;;;;;5147465;27;20045;-79
2022/10/21 12:32:00;;;;;;;0.10;0.10;;;16.20;99.90;;;;;;5128118;27;20035;-79
2022/10/21 12:34:27;;;;;;;4.85;1.90;;;16.40;99.90;;;;;;5148429;27;20057;-80
2022/10/21 12:36:53;;;;;;;1.17;1.05;;;16.80;99.90;;;;;;5132076;27;20125;-80
2022/10/21 12:39:34;;;;;;;0.63;0.60;;;17.20;99.90;;;;;;5132340;27;20043;-80
2022/10/21 12:42:13;;;;;;;0.28;0.28;;;17.90;99.90;;;;;;5146800;27;20045;-80
2022/10/21 12:44:44;;;;;;;0.15;0.15;;;18.10;99.90;;;;;;5129569;27;20039;-80
2022/10/21 12:47:24;;;;;;;0.10;0.10;;;18.00;99.90;;;;;;5110182;27;20035;-80
2022/10/21 12:50:27;;;;;;;2.50;1.48;;;18.40;99.90;;;;;;5126826;27;20047;-80
2022/10/21 12:53:27;;;;;;;0.20;0.20;;;18.80;99.90;;;;;;5126869;27;20065;-80
2022/10/21 12:55:57;;;;;;;0.75;0.75;;;18.90;99.90;;;;;;5130585;27;20039;-79
2022/10/21 12:58:40;;;;;;;0.13;0.13;;;18.70;99.90;;;;;;5123238;27;20069;-80
2022/10/21 13:01:27;;;;;;;0.20;0.20;;;18.90;99.90;;;;;;5150242;27;20042;-79
2022/10/21 13:03:54;;;;;;;2.97;1.73;;;19.20;99.90;;;;;;5147799;27;20490;-81
2022/10/21 13:06:55;;;;;;;0.98;0.47;;;19.20;99.90;;;;;;5150071;27;20509;-80
2022/10/21 13:09:51;;;;;;;0.90;0.60;;;19.80;99.90;;;;;;5145991;27;20658;-80